SWCL weather

Chácara Santa Eulália Airport
Alta Floresta, Mato Grosso, Brazil

Public forecast

Using degrees Celsius for public forecast. Weather courtesy of forecast.io.

Closest aviation weather report (METAR) to Chácara Santa Eulália Airport

Report is more than 6 hours old.

Closest report is Piloto Osvaldo Marques Dias Airport, 79.9 nm (148.0 km) ESE. Retrieved 2020/06/05 21:00 UTC (8 hours ago):

SBAT 052100Z 30003KT 9999 FEW030 FEW040TCU 29/24 Q1013

Closest aviation forecast (TAF) to Chácara Santa Eulália Airport

Closest forecast is Piloto Osvaldo Marques Dias Airport, 79.9 nm (148.0 km) ESE. Retrieved 2020-06-06 00:42 UTC (4 hours ago):

TAF TAF SBAT 052100Z 0600/0612 12006KT CAVOK TN20/0606Z TX27/0612Z BECMG 0610/0612 9999 FEW020 RMK PEG